Grigg, Illinois
Current Conditions -  °F | °C
As of 9:35 PM on Saturday 24 Jan 2015 (Local Time) from KSAR Reporting Station
Clear Clear  
Wind Chill: 39°   Ceiling: Unl
Heat Index: 44°   Visibility: 10mi
Dew Point: 32°   Wind: 9mph
Humidity: 64%   Direction: 190°S
Pressure: 29.77"   Gusts: NA
Location:  38.1575°N, 89.9813°W
Report Text: KSAR 250335Z AUTO 19008KT 10SM CLR 07/00 A2977 RMK AO2 T00650002
Loading
Personal Weather Stations






























Interactive Weather Map New forecast layout! Learn more

10-Day Weather Forecast

Advertisements
Track Severe Weather on mobile